Time;durP1;ratioP1;P1;durP2;ratioP2;P2;SDS_P1;SDS_P2;PMS_P1;PMS_P2;Temp;Humidity;BMP_temperature;BMP_pressure;BME280_temperature;BME280_humidity;BME280_pressure;Samples;Min_cycle;Max_cycle;Signal;HPM_P1;HPM_P2
2023/09/17 00:00:09;;;;;;;20.65;18.50;;;16.20;99.90;;;-141.84;85.68;20340.25;5004736;28;20320;-59
2023/09/17 00:02:39;;;;;;;20.42;18.33;;;16.10;99.90;;;-141.84;85.94;20374.81;5005049;28;20226;-60
2023/09/17 00:05:08;;;;;;;20.02;18.00;;;16.20;99.90;;;-141.84;86.12;20378.88;5000354;28;20265;-59
2023/09/17 00:07:39;;;;;;;20.63;18.63;;;16.10;99.90;;;-141.84;86.14;20334.16;5005165;28;20555;-62
2023/09/17 00:10:08;;;;;;;20.13;18.13;;;16.10;99.90;;;-141.84;86.12;20321.97;4991718;28;20691;-61
2023/09/17 00:12:36;;;;;;;20.48;18.48;;;16.10;99.90;;;-141.84;86.25;20346.34;4985329;28;20262;-60
2023/09/17 00:15:06;;;;;;;19.98;17.98;;;16.10;99.90;;;-141.84;86.50;20326.03;4984099;28;20258;-60
2023/09/17 00:17:37;;;;;;;20.35;18.27;;;16.00;99.90;;;-141.84;86.75;20338.22;4987133;28;20270;-59
2023/09/17 00:20:10;;;;;;;19.70;17.80;;;16.00;99.90;;;-141.84;87.01;20305.69;5004408;28;20760;-60
2023/09/17 00:22:39;;;;;;;21.13;18.98;;;16.00;99.90;;;-141.84;87.17;20328.06;5004474;28;20230;-62
2023/09/17 00:25:08;;;;;;;20.70;18.60;;;16.00;99.90;;;-141.84;87.21;20326.03;4997566;28;20218;-60
2023/09/17 00:27:36;;;;;;;19.02;17.13;;;16.00;99.90;;;-141.84;87.44;20311.78;5004807;28;20245;-60
2023/09/17 00:30:05;;;;;;;20.02;17.95;;;16.00;99.90;;;-141.84;87.59;20291.47;5004445;28;20326;-60
2023/09/17 00:32:33;;;;;;;19.02;17.13;;;16.00;99.90;;;-141.84;87.79;20307.72;5004839;28;20266;-59
2023/09/17 00:35:01;;;;;;;20.45;18.35;;;15.90;99.90;;;-141.84;88.11;20275.22;4984682;28;20242;-60
2023/09/17 00:37:31;;;;;;;19.33;17.42;;;15.90;99.90;;;-141.84;88.07;20275.22;4978525;28;20239;-60
2023/09/17 00:39:59;;;;;;;19.65;17.75;;;15.90;99.90;;;-141.84;88.07;20258.94;4985210;28;20210;-62
2023/09/17 00:42:27;;;;;;;20.80;18.73;;;15.90;99.90;;;-141.84;88.15;20291.47;4984677;28;20321;-60
2023/09/17 00:44:55;;;;;;;19.02;17.20;;;15.90;99.90;;;-141.84;88.24;20271.16;4984975;28;20263;-59
2023/09/17 00:47:24;;;;;;;19.88;17.88;;;15.90;99.90;;;-141.84;88.60;20258.94;4977333;28;20726;-60
2023/09/17 00:49:52;;;;;;;19.33;17.25;;;15.90;99.90;;;-141.84;88.81;20265.03;5003881;28;20705;-60
2023/09/17 00:52:22;;;;;;;19.73;17.80;;;15.90;99.90;;;-141.84;88.99;20256.91;5004231;28;20556;-60
2023/09/17 00:54:53;;;;;;;20.73;18.52;;;15.90;99.90;;;-141.84;88.84;20289.44;5003878;28;20284;-60
2023/09/17 00:57:23;;;;;;;21.65;17.95;;;15.80;99.90;;;-141.84;88.89;20210.16;4997137;28;20222;-61
2023/09/17 00:59:51;;;;;;;19.35;17.45;;;15.80;99.90;;;-141.84;88.97;20212.19;5004744;28;20531;-59
2023/09/17 01:02:22;;;;;;;19.38;17.52;;;15.80;99.90;;;-141.84;89.24;20224.41;5004204;28;20226;-60
2023/09/17 01:04:54;;;;;;;20.73;18.67;;;15.80;99.90;;;-141.84;89.25;20242.69;5002725;28;20233;-58
2023/09/17 01:07:22;;;;;;;19.85;17.88;;;15.80;99.90;;;-141.84;89.39;20263.00;4976497;28;20262;-59
2023/09/17 01:09:52;;;;;;;19.77;17.80;;;15.70;99.90;;;-141.84;89.55;20242.69;4984261;28;20206;-60
2023/09/17 01:12:22;;;;;;;19.60;17.50;;;15.70;99.90;;;-141.84;89.64;20220.34;4984147;28;20908;-59
2023/09/17 01:14:50;;;;;;;21.23;19.05;;;15.70;99.90;;;-141.84;89.72;20216.25;4984158;28;20231;-59
2023/09/17 01:17:19;;;;;;;19.83;17.92;;;15.70;99.90;;;-141.84;89.84;20202.03;4976343;28;20667;-59
2023/09/17 01:19:48;;;;;;;21.58;18.58;;;15.70;99.90;;;-141.84;90.03;20244.72;5003264;28;20226;-60
2023/09/17 01:22:26;;;;;;;22.05;19.73;;;15.60;99.90;;;-141.84;89.74;20224.41;5003675;28;20563;-60
2023/09/17 01:25:06;;;;;;;21.27;19.17;;;15.60;99.90;;;-141.84;89.73;20218.31;5003654;28;20226;-61
2023/09/17 01:27:39;;;;;;;21.10;19.00;;;15.60;99.90;;;-141.84;89.93;20234.56;5003778;28;20316;-60
2023/09/17 01:30:15;;;;;;;22.10;19.80;;;15.60;99.90;;;-141.84;89.95;20240.66;5003369;28;20254;-61
2023/09/17 01:32:44;;;;;;;22.30;20.10;;;15.60;99.90;;;-141.84;89.69;20210.16;5002688;28;20238;-60
2023/09/17 01:35:15;;;;;;;22.42;20.15;;;15.60;99.90;;;-141.84;89.51;20222.38;4976307;28;20237;-60
2023/09/17 01:37:50;;;;;;;21.80;19.50;;;15.50;99.90;;;-141.84;89.59;20232.53;4984214;28;20223;-60
2023/09/17 01:40:19;;;;;;;22.20;19.98;;;15.60;99.90;;;-141.84;90.03;20143.09;4983396;28;20705;-61
2023/09/17 01:42:50;;;;;;;22.90;20.65;;;15.50;99.90;;;-141.84;89.96;20185.78;4983736;28;20200;-59
2023/09/17 01:45:21;;;;;;;22.42;20.08;;;15.50;99.90;;;-141.84;90.07;20183.75;4975995;28;20683;-60
2023/09/17 01:47:50;;;;;;;21.80;19.60;;;15.50;99.90;;;-141.84;90.09;20157.31;4987780;28;20231;-60
2023/09/17 01:50:21;;;;;;;21.67;19.55;;;15.50;99.90;;;-141.84;90.25;20173.59;5003080;28;20706;-60
2023/09/17 01:52:50;;;;;;;21.05;18.80;;;15.50;99.90;;;-141.84;90.34;20189.84;5003220;28;20246;-60
2023/09/17 01:55:18;;;;;;;20.83;18.58;;;15.40;99.90;;;-141.84;90.59;20169.53;4995027;28;20231;-62
2023/09/17 01:57:48;;;;;;;20.48;18.38;;;15.40;99.90;;;-141.84;90.75;20155.28;5002727;28;20303;-60
2023/09/17 02:00:18;;;;;;;20.48;18.50;;;15.40;99.90;;;-141.84;90.92;20159.34;5002452;28;20337;-60
2023/09/17 02:02:48;;;;;;;20.33;18.23;;;15.40;99.90;;;-141.84;91.12;20159.34;4987910;28;20254;-60
2023/09/17 02:05:20;;;;;;;21.50;19.20;;;15.40;99.90;;;-141.84;91.10;20141.06;4975310;28;20254;-60
2023/09/17 02:07:49;;;;;;;19.35;17.30;;;15.40;99.90;;;-141.84;91.26;20173.59;4983181;28;20255;-60
2023/09/17 02:10:17;;;;;;;19.55;17.42;;;15.40;99.90;;;-141.84;91.26;20139.03;4983620;28;20203;-61
2023/09/17 02:12:45;;;;;;;20.02;17.70;;;15.30;99.90;;;-141.84;91.47;20151.22;4983608;28;20646;-61
2023/09/17 02:15:15;;;;;;;19.10;17.20;;;15.30;99.90;;;-141.84;91.28;20153.25;4975454;28;20237;-60
2023/09/17 02:17:43;;;;;;;19.92;17.92;;;15.40;99.90;;;-141.84;91.39;20157.31;4985986;28;20294;-59
2023/09/17 02:20:12;;;;;;;19.55;17.55;;;15.30;99.90;;;-141.84;91.39;20155.28;5003267;28;20242;-60
2023/09/17 02:22:41;;;;;;;20.27;18.17;;;15.30;99.90;;;-141.84;91.36;20153.25;5002463;28;20231;-59
2023/09/17 02:25:10;;;;;;;20.65;18.48;;;15.30;99.90;;;-141.84;91.11;20165.44;4995757;28;20207;-61
2023/09/17 02:27:40;;;;;;;20.60;18.50;;;15.30;99.90;;;-141.84;90.92;20134.97;5002643;28;20230;-59
2023/09/17 02:30:09;;;;;;;19.80;17.70;;;15.30;99.90;;;-141.84;90.88;20161.38;5002287;28;20321;-60
2023/09/17 02:32:39;;;;;;;20.63;18.52;;;15.30;99.90;;;-141.84;90.78;20155.28;5002631;28;20231;-60
2023/09/17 02:35:08;;;;;;;20.23;18.17;;;15.30;99.90;;;-141.84;90.60;20153.25;4997088;28;20240;-62
2023/09/17 02:37:37;;;;;;;20.10;18.05;;;15.30;99.90;;;-141.84;90.46;20216.25;5002787;28;20234;-59
2023/09/17 02:40:09;;;;;;;19.55;17.52;;;15.30;99.90;;;-141.84;90.51;20151.22;4993450;28;20694;-59
2023/09/17 02:42:38;;;;;;;20.13;17.92;;;15.30;99.90;;;-141.84;90.78;20143.09;4982716;28;20737;-58
2023/09/17 02:45:08;;;;;;;21.60;18.75;;;15.30;99.90;;;-141.84;90.78;20126.84;4974955;28;20671;-60
2023/09/17 02:47:40;;;;;;;19.60;17.55;;;15.30;99.90;;;-141.84;90.74;20130.91;4985175;28;20227;-59
2023/09/17 02:50:10;;;;;;;19.80;17.88;;;15.20;99.90;;;-141.84;90.96;20114.63;5002494;28;20706;-60
2023/09/17 02:52:39;;;;;;;19.33;17.33;;;15.20;99.90;;;-141.84;91.16;20149.19;5003070;28;20239;-59
2023/09/17 02:55:08;;;;;;;18.30;16.45;;;15.20;99.90;;;-141.84;91.34;20063.81;4995975;28;20258;-60
2023/09/17 02:57:36;;;;;;;19.75;17.67;;;15.10;99.90;;;-141.84;91.55;20078.06;4998767;28;20254;-60
2023/09/17 03:00:08;;;;;;;20.15;17.98;;;15.10;99.90;;;-141.84;91.66;20100.41;4982213;28;20730;-59
2023/09/17 03:02:40;;;;;;;18.38;16.58;;;15.10;99.90;;;-141.84;91.69;20088.22;4982592;28;20238;-59
2023/09/17 03:05:10;;;;;;;18.63;16.65;;;15.10;99.90;;;-141.84;91.54;20094.31;4975250;28;20231;-61
2023/09/17 03:07:39;;;;;;;19.15;17.23;;;15.10;99.90;;;-141.84;91.64;20108.53;4982965;28;20227;-59
2023/09/17 03:10:11;;;;;;;19.15;17.27;;;15.10;99.90;;;-141.84;91.77;20110.56;4972312;28;20675;-59
2023/09/17 03:12:40;;;;;;;18.38;16.63;;;15.10;99.90;;;-141.84;90.48;20151.22;4963308;28;20240;-59
2023/09/17 03:15:09;;;;;;;17.58;15.82;;;15.10;99.90;;;-141.84;89.43;20163.41;4955703;28;20320;-61
2023/09/17 03:17:40;;;;;;;18.55;15.70;;;15.20;99.90;;;-141.84;89.27;20151.22;4980062;28;20719;-60
2023/09/17 03:20:16;;;;;;;17.35;15.60;;;15.20;99.90;;;-141.84;89.57;20114.63;5005847;28;20709;-60
2023/09/17 03:22:46;;;;;;;17.10;15.40;;;15.20;99.90;;;-141.84;90.05;20074.00;5006013;28;20256;-60
2023/09/17 03:25:14;;;;;;;16.77;15.18;;;15.20;99.90;;;-141.84;90.54;20139.03;4998683;28;20289;-59
2023/09/17 03:27:44;;;;;;;18.10;15.90;;;15.10;99.90;;;-141.84;90.71;20110.56;5005478;28;20261;-60
2023/09/17 03:30:14;;;;;;;17.40;15.60;;;15.10;99.90;;;-141.84;90.80;20076.03;5006161;28;20265;-60
2023/09/17 03:32:43;;;;;;;16.15;14.55;;;15.10;99.90;;;-141.84;91.12;20076.03;5004746;28;20258;-60
2023/09/17 03:35:14;;;;;;;16.95;15.23;;;15.10;99.90;;;-141.84;91.22;20084.16;4978608;28;20322;-61
2023/09/17 03:37:43;;;;;;;16.20;14.60;;;15.00;99.90;;;-141.84;91.19;20090.25;4986364;28;20259;-59
2023/09/17 03:40:14;;;;;;;16.58;14.90;;;15.00;99.90;;;-141.84;90.91;20110.56;4986825;28;20273;-59
2023/09/17 03:42:46;;;;;;;16.77;14.98;;;15.00;99.90;;;-141.84;90.19;20090.25;4986015;28;20223;-60
2023/09/17 03:45:15;;;;;;;17.55;14.75;;;15.00;99.90;;;-141.84;90.20;20110.56;4974755;28;20223;-60
2023/09/17 03:47:47;;;;;;;17.55;15.82;;;15.00;99.90;;;-141.84;90.39;20088.22;4978591;28;20322;-61
2023/09/17 03:50:17;;;;;;;16.20;14.60;;;15.00;99.90;;;-141.84;89.93;20102.44;4974584;28;20232;-59
2023/09/17 03:52:54;;;;;;;15.23;13.73;;;15.00;99.90;;;-141.84;90.06;20088.22;4974761;28;20393;-59
2023/09/17 03:55:23;;;;;;;15.68;14.18;;;15.00;99.90;;;-141.84;90.25;20078.06;4970985;28;20227;-58
2023/09/17 03:57:52;;;;;;;15.70;14.13;;;15.00;99.90;;;-141.84;90.30;20090.25;4977171;28;20231;-60
2023/09/17 04:00:21;;;;;;;16.40;14.68;;;15.00;99.90;;;-141.84;90.40;20063.81;4985159;28;20286;-60
2023/09/17 04:02:52;;;;;;;15.57;13.98;;;15.00;99.90;;;-141.84;90.63;20067.88;4970149;28;20254;-59
2023/09/17 04:05:21;;;;;;;15.13;13.68;;;15.00;99.90;;;-141.84;90.71;20104.47;4959137;28;20278;-59
2023/09/17 04:07:49;;;;;;;16.45;14.85;;;15.00;99.90;;;-141.84;90.80;20090.25;4966683;28;20232;-61
2023/09/17 04:10:19;;;;;;;14.88;13.38;;;15.00;99.90;;;-141.84;90.58;20090.25;4978680;28;20230;-60
2023/09/17 04:12:47;;;;;;;16.50;14.05;;;15.00;99.90;;;-141.84;90.58;20074.00;4985437;28;20258;-59
2023/09/17 04:15:20;;;;;;;15.45;12.77;;;15.00;99.90;;;-141.84;90.67;20069.94;4977154;28;20241;-61
2023/09/17 04:17:51;;;;;;;15.27;13.68;;;14.90;99.90;;;-141.84;90.75;20043.50;4989066;28;20285;-59
2023/09/17 04:20:21;;;;;;;15.30;13.73;;;15.00;99.90;;;-141.84;90.59;20118.69;5004824;28;20701;-60
2023/09/17 04:22:51;;;;;;;15.30;13.80;;;14.90;99.90;;;-141.84;90.56;20069.94;5004540;28;20277;-60
2023/09/17 04:25:21;;;;;;;14.90;13.40;;;14.90;99.90;;;-141.84;90.35;20086.19;4997524;28;20293;-61
2023/09/17 04:27:51;;;;;;;15.05;13.45;;;14.90;99.90;;;-141.84;90.00;20102.44;5005150;28;20213;-61
2023/09/17 04:30:19;;;;;;;14.82;13.43;;;14.90;99.90;;;-141.84;89.43;20092.28;5003877;28;20337;-60
2023/09/17 04:32:51;;;;;;;15.38;13.82;;;14.90;99.90;;;-141.84;89.47;20069.94;4993325;28;20238;-60
2023/09/17 04:35:21;;;;;;;14.43;13.02;;;14.90;99.90;;;-141.84;89.75;20088.22;4977156;28;20231;-60
2023/09/17 04:37:51;;;;;;;14.18;12.80;;;15.00;99.90;;;-141.84;89.93;20106.50;4984743;28;20239;-60
2023/09/17 04:40:25;;;;;;;14.75;13.25;;;14.90;99.90;;;-141.84;90.04;20059.75;4985012;28;20303;-59
2023/09/17 04:42:53;;;;;;;15.80;13.88;;;14.90;99.90;;;-141.84;89.57;20076.03;4985113;28;20270;-60
2023/09/17 04:45:34;;;;;;;15.30;13.45;;;14.90;99.90;;;-141.84;88.85;20049.59;4976972;28;20691;-60
2023/09/17 04:48:03;;;;;;;16.77;13.70;;;15.00;99.90;;;-141.84;89.05;20080.09;4983154;28;20311;-58
2023/09/17 04:50:33;;;;;;;14.48;13.00;;;15.00;99.90;;;-141.84;89.50;20118.69;4984481;28;20220;-61
2023/09/17 04:53:03;;;;;;;13.93;12.50;;;15.00;99.90;;;-141.84;89.79;20076.03;4984908;28;20601;-59
2023/09/17 04:55:32;;;;;;;15.02;12.80;;;15.00;99.90;;;-141.84;89.82;20102.44;4981598;28;20659;-59
2023/09/17 04:58:00;;;;;;;15.70;14.20;;;14.90;99.90;;;-141.84;89.75;20065.84;4985181;28;20211;-59
2023/09/17 05:00:29;;;;;;;14.80;13.30;;;15.00;99.90;;;-141.84;89.75;20100.41;4984748;28;20238;-60
2023/09/17 05:02:57;;;;;;;14.35;12.95;;;15.00;99.90;;;-141.84;89.92;20098.38;4984423;28;20327;-60
2023/09/17 05:05:25;;;;;;;17.55;13.95;;;15.10;99.90;;;-141.84;89.66;20132.94;4976124;28;20862;-59
2023/09/17 05:07:55;;;;;;;15.77;14.18;;;15.10;99.90;;;-141.84;89.24;20126.84;4984579;28;20228;-60
2023/09/17 05:10:23;;;;;;;15.68;14.18;;;15.20;99.90;;;-141.84;88.76;20130.91;4971620;28;20258;-60
2023/09/17 05:12:51;;;;;;;15.30;13.75;;;15.30;99.90;;;-141.84;87.85;20200.00;4965402;28;20695;-60
2023/09/17 05:15:21;;;;;;;15.48;13.93;;;15.40;99.90;;;-141.84;86.34;20210.16;4956936;28;20319;-60
2023/09/17 05:17:50;;;;;;;14.98;13.48;;;15.50;99.90;;;-141.84;86.64;20204.06;4979342;28;20235;-59
2023/09/17 05:20:21;;;;;;;14.73;13.30;;;15.60;99.90;;;-141.84;86.59;20238.63;4984034;28;20274;-60
2023/09/17 05:22:49;;;;;;;14.35;12.77;;;15.80;99.90;;;-141.84;85.60;20273.19;4983956;28;20600;-59
2023/09/17 05:25:19;;;;;;;14.50;13.00;;;15.80;99.90;;;-141.84;85.40;20256.91;4976846;28;20207;-59
2023/09/17 05:27:47;;;;;;;13.88;12.68;;;15.90;99.90;;;-141.84;84.63;20289.44;4984626;28;20238;-60
2023/09/17 05:30:20;;;;;;;13.88;12.57;;;16.10;99.90;;;-141.84;84.12;20321.97;4983732;28;20777;-59
2023/09/17 05:32:48;;;;;;;14.32;12.88;;;16.20;99.90;;;-141.84;83.08;20364.66;4983411;28;20707;-59
2023/09/17 05:35:16;;;;;;;13.73;12.40;;;16.40;99.90;;;-141.84;81.96;20427.66;4976212;28;20241;-59
2023/09/17 05:37:45;;;;;;;13.95;12.57;;;16.60;99.90;;;-141.84;80.46;20470.34;4984154;28;20727;-60
2023/09/17 05:40:13;;;;;;;14.43;13.02;;;16.70;99.90;;;-141.84;78.51;20543.53;4984735;28;20218;-60
2023/09/17 05:42:43;;;;;;;13.38;11.98;;;16.90;99.90;;;-141.84;78.06;20569.94;4984032;28;20265;-59
2023/09/17 05:45:11;;;;;;;13.13;11.93;;;17.00;99.90;;;-141.84;76.52;20622.81;4976450;28;20239;-59
2023/09/17 05:47:40;;;;;;;11.95;10.75;;;17.10;99.90;;;-141.84;76.85;20610.59;4983283;28;20246;-60
2023/09/17 05:50:10;;;;;;;12.07;10.98;;;17.30;99.90;;;-141.84;77.34;20630.94;4983254;28;20587;-60
2023/09/17 05:52:39;;;;;;;11.10;10.07;;;17.50;99.90;;;-141.84;77.51;20647.19;4985150;28;20231;-60
2023/09/17 05:55:08;;;;;;;11.52;10.43;;;17.60;99.90;;;-141.84;76.72;20669.56;4978459;28;20215;-60
2023/09/17 05:57:36;;;;;;;12.00;10.80;;;17.70;99.90;;;-141.84;76.18;20700.03;4985521;28;20326;-61
2023/09/17 06:00:08;;;;;;;12.07;10.93;;;17.90;99.90;;;-141.84;75.31;20732.56;4984810;28;20270;-60
2023/09/17 06:02:37;;;;;;;11.20;10.10;;;18.00;99.90;;;-141.84;75.15;20754.94;4971819;28;20363;-59
2023/09/17 06:05:06;;;;;;;11.00;9.98;;;18.00;99.90;;;-141.84;73.37;20805.75;4964280;28;20307;-61
2023/09/17 06:07:35;;;;;;;11.18;10.18;;;18.10;99.90;;;-141.84;72.33;20842.34;4963974;28;20707;-59
2023/09/17 06:10:04;;;;;;;11.60;10.50;;;18.10;99.90;;;-141.84;72.36;20779.31;4974499;28;20652;-59
2023/09/17 06:12:32;;;;;;;10.57;9.68;;;18.10;99.90;;;-141.84;72.92;20799.66;4983352;28;20285;-59
2023/09/17 06:15:01;;;;;;;10.15;9.25;;;18.10;99.90;;;-141.84;73.17;20811.84;4983617;28;20311;-59
2023/09/17 06:17:30;;;;;;;10.55;9.55;;;18.10;99.90;;;-141.84;72.64;20801.69;4974735;28;20321;-60
2023/09/17 06:19:59;;;;;;;10.50;9.50;;;18.10;99.90;;;-141.84;72.78;20793.56;4982653;28;20234;-60
2023/09/17 06:22:27;;;;;;;10.77;9.68;;;18.10;99.90;;;-141.84;72.86;20777.28;4983393;28;20424;-60
2023/09/17 06:24:55;;;;;;;12.65;9.88;;;18.10;99.90;;;-141.84;72.92;20852.50;4983584;28;20597;-60
2023/09/17 06:27:23;;;;;;;10.52;9.63;;;18.20;99.90;;;-141.84;72.92;20844.38;4976688;28;20737;-60
2023/09/17 06:29:51;;;;;;;10.35;9.25;;;18.20;99.90;;;-141.84;72.54;20844.38;4982729;28;20258;-59
2023/09/17 06:32:19;;;;;;;11.05;10.05;;;18.30;99.90;;;-141.84;71.11;20931.78;4982846;28;20254;-59
2023/09/17 06:34:49;;;;;;;10.30;9.30;;;18.40;99.90;;;-141.84;71.61;20903.34;4982596;28;20235;-59
2023/09/17 06:37:17;;;;;;;8.95;8.15;;;18.40;99.90;;;-141.84;71.73;20907.41;4975668;28;20227;-61
2023/09/17 06:39:45;;;;;;;9.23;8.43;;;18.50;99.90;;;-141.84;71.44;20941.97;4982944;28;20258;-60
2023/09/17 06:42:14;;;;;;;9.60;8.70;;;18.50;99.90;;;-141.84;71.16;20944.00;4982624;28;20227;-60
2023/09/17 06:44:42;;;;;;;10.80;9.68;;;18.60;99.90;;;-141.84;70.43;20978.56;4966837;28;20766;-60
2023/09/17 06:47:10;;;;;;;9.68;8.80;;;18.60;99.90;;;-141.84;69.86;21049.72;4956448;28;20259;-60
2023/09/17 06:49:38;;;;;;;9.88;8.95;;;18.70;99.90;;;-141.84;69.38;21078.16;4981366;28;20247;-59
2023/09/17 06:52:09;;;;;;;10.35;9.35;;;18.90;99.90;;;-141.84;69.36;21096.47;4984120;28;20211;-60
2023/09/17 06:54:37;;;;;;;10.60;9.55;;;19.10;99.90;;;-141.84;69.26;21139.16;4986717;28;20608;-59
2023/09/17 06:57:05;;;;;;;9.63;8.63;;;19.10;99.90;;;-141.84;68.05;21204.22;4986227;28;20655;-61
2023/09/17 06:59:34;;;;;;;9.45;8.55;;;19.30;99.90;;;-141.84;68.09;21175.75;4985728;28;20257;-61
2023/09/17 07:02:02;;;;;;;9.18;8.23;;;19.50;99.90;;;-141.84;67.14;21263.19;4978098;28;20283;-61
2023/09/17 07:04:30;;;;;;;9.52;8.50;;;19.70;99.90;;;-141.84;65.86;21318.06;4967081;28;20211;-60
2023/09/17 07:07:00;;;;;;;9.43;8.55;;;20.00;99.90;;;-141.84;64.92;21336.38;4967430;28;20238;-59
2023/09/17 07:09:31;;;;;;;9.57;8.68;;;20.10;99.90;;;-141.84;62.97;21425.84;4964132;28;20227;-60
2023/09/17 07:11:59;;;;;;;8.85;8.05;;;20.20;99.90;;;-141.84;63.50;21393.31;4986709;28;20331;-60
2023/09/17 07:14:28;;;;;;;10.00;9.00;;;20.30;99.90;;;-141.84;63.42;21401.44;4986654;28;20231;-60
2023/09/17 07:16:56;;;;;;;8.57;7.78;;;20.40;99.90;;;-141.84;63.45;21436.00;4986540;28;20231;-60
2023/09/17 07:19:25;;;;;;;9.20;8.20;;;20.40;99.90;;;-141.84;63.26;21484.78;4978637;28;20222;-60
2023/09/17 07:21:53;;;;;;;8.55;7.75;;;20.50;99.90;;;-141.84;62.39;21511.22;4987024;28;20265;-59
2023/09/17 07:24:22;;;;;;;8.88;7.65;;;20.60;99.90;;;-141.84;62.75;21541.72;4985915;28;20326;-60
2023/09/17 07:26:52;;;;;;;9.05;8.25;;;20.80;99.90;;;-141.84;62.74;21537.66;4986440;28;20227;-59
2023/09/17 07:29:20;;;;;;;8.50;7.70;;;20.80;99.90;;;-141.84;62.67;21523.44;4978583;28;20227;-60
2023/09/17 07:31:48;;;;;;;8.18;7.45;;;20.80;99.90;;;-141.84;63.00;21505.13;4986122;28;20236;-59
2023/09/17 07:34:16;;;;;;;8.80;8.00;;;20.90;99.90;;;-141.84;62.13;21537.66;4985851;28;20215;-60
2023/09/17 07:36:44;;;;;;;8.63;7.82;;;20.80;99.90;;;-141.84;62.44;21517.31;4986220;28;20219;-60
2023/09/17 07:39:13;;;;;;;7.75;7.15;;;20.80;99.90;;;-141.84;62.47;21545.78;4978184;28;20326;-62
2023/09/17 07:41:41;;;;;;;8.70;8.00;;;20.90;99.90;;;-141.84;61.84;21547.81;4985694;28;20266;-59
2023/09/17 07:44:10;;;;;;;8.48;7.68;;;20.90;99.90;;;-141.84;61.35;21578.31;4981311;28;20258;-59
2023/09/17 07:46:38;;;;;;;8.13;7.40;;;21.00;99.90;;;-141.84;61.15;21623.06;4975731;28;20243;-60
2023/09/17 07:49:07;;;;;;;8.80;7.93;;;21.10;99.90;;;-141.84;61.01;21702.34;4968265;28;20294;-60
2023/09/17 07:51:35;;;;;;;8.40;7.65;;;21.30;99.90;;;-141.84;61.39;21692.19;4984088;28;20743;-63
2023/09/17 07:54:04;;;;;;;7.43;6.82;;;21.40;99.90;;;-141.84;60.60;21706.44;4985384;28;20235;-63
2023/09/17 07:56:32;;;;;;;8.68;7.50;;;21.50;99.90;;;-141.84;59.76;21753.19;4985612;28;20739;-63
2023/09/17 07:59:01;;;;;;;9.05;8.15;;;21.60;99.90;;;-141.84;58.65;21755.22;4985614;28;20250;-63
2023/09/17 08:01:31;;;;;;;8.35;7.63;;;21.70;99.90;;;-141.84;59.10;21789.78;4978201;28;20591;-62
2023/09/17 08:03:59;;;;;;;8.32;7.63;;;21.70;99.90;;;-141.84;58.88;21816.22;4985001;28;20216;-63
2023/09/17 08:06:28;;;;;;;8.07;7.43;;;21.80;99.90;;;-141.84;58.91;21808.09;4986023;28;20846;-62
2023/09/17 08:08:56;;;;;;;7.97;7.15;;;21.90;99.90;;;-141.84;58.80;21830.47;4984454;28;20309;-65
2023/09/17 08:11:29;;;;;;;7.35;6.72;;;21.90;99.90;;;-141.84;58.82;21852.81;4957957;28;20303;-63
2023/09/17 08:13:57;;;;;;;8.70;7.80;;;22.00;99.90;;;-141.84;59.17;21850.78;4966041;28;20283;-64
2023/09/17 08:16:26;;;;;;;7.85;6.88;;;22.00;99.90;;;-141.84;58.00;21913.84;4969345;28;20203;-62
2023/09/17 08:18:55;;;;;;;7.45;6.85;;;22.10;99.90;;;-141.84;57.95;21956.53;4984483;28;20317;-63
2023/09/17 08:21:24;;;;;;;8.40;7.50;;;22.10;99.90;;;-141.84;58.11;21917.91;4978127;28;20246;-62
2023/09/17 08:23:52;;;;;;;7.25;6.53;;;22.20;99.90;;;-141.84;58.10;21911.78;4985557;28;20231;-62
2023/09/17 08:26:21;;;;;;;8.48;7.60;;;22.30;99.90;;;-141.84;58.21;21962.63;4985078;28;20246;-63
2023/09/17 08:28:49;;;;;;;8.27;7.50;;;22.30;99.90;;;-141.84;59.16;21903.66;4985007;28;20281;-63
2023/09/17 08:31:18;;;;;;;7.15;6.55;;;22.30;99.90;;;-141.84;59.36;21879.25;4977625;28;20726;-63
2023/09/17 08:33:46;;;;;;;6.85;6.18;;;22.30;99.90;;;-141.84;60.23;21850.78;4985667;28;20231;-62
2023/09/17 08:36:16;;;;;;;7.82;7.13;;;22.20;99.90;;;-141.84;61.37;21810.13;4986351;28;20266;-63
2023/09/17 08:38:45;;;;;;;8.55;7.75;;;22.00;99.90;;;-141.84;61.48;21799.97;4986479;28;20327;-63
2023/09/17 08:41:13;;;;;;;8.07;7.07;;;21.90;99.90;;;-141.84;61.34;21793.84;4980295;28;20235;-63
2023/09/17 08:43:43;;;;;;;9.00;8.20;;;21.90;99.90;;;-141.84;61.39;21777.59;4985741;28;20231;-63
2023/09/17 08:46:12;;;;;;;7.63;7.00;;;21.80;99.90;;;-141.84;61.34;21773.53;4987096;28;20258;-64
2023/09/17 08:48:40;;;;;;;7.80;7.10;;;21.80;99.90;;;-141.84;62.00;21771.50;4986319;28;20238;-62
2023/09/17 08:51:13;;;;;;;8.02;7.22;;;21.80;99.90;;;-141.84;61.86;21783.69;4982121;28;20262;-62
2023/09/17 08:53:51;;;;;;;7.22;6.53;;;21.80;99.90;;;-141.84;61.78;21761.31;4986505;28;20289;-63
2023/09/17 08:56:22;;;;;;;8.05;7.35;;;21.80;99.90;;;-141.84;61.90;21736.94;4986026;28;20294;-63
2023/09/17 08:58:55;;;;;;;8.05;6.97;;;21.70;99.90;;;-141.84;62.06;21724.72;4985878;28;20274;-62
2023/09/17 09:01:25;;;;;;;7.72;7.03;;;21.70;99.90;;;-141.84;62.21;21706.44;4977670;28;20211;-62
2023/09/17 09:03:55;;;;;;;7.53;6.82;;;21.60;99.90;;;-141.84;62.28;21677.97;4986296;28;20211;-63
2023/09/17 09:06:28;;;;;;;7.60;6.90;;;21.60;99.90;;;-141.84;62.46;21690.16;4986525;28;20349;-63
2023/09/17 09:08:59;;;;;;;7.43;6.82;;;21.60;99.90;;;-141.84;62.91;21690.16;4985859;28;20843;-62
2023/09/17 09:11:28;;;;;;;7.72;7.03;;;21.60;99.90;;;-141.84;62.91;21651.53;4997649;28;26088;-64
2023/09/17 09:13:57;;;;;;;7.88;7.18;;;21.50;99.90;;;-141.84;63.42;21651.53;5005063;28;20305;-62
2023/09/17 09:16:28;;;;;;;7.75;7.13;;;21.50;99.90;;;-141.84;63.47;21647.47;5000818;28;20206;-63
2023/09/17 09:18:56;;;;;;;7.45;6.85;;;21.50;99.90;;;-141.84;62.98;21643.38;4998970;28;20253;-62
2023/09/17 09:21:24;;;;;;;7.88;7.13;;;21.50;99.90;;;-141.84;62.93;21698.28;4999223;28;20258;-63
2023/09/17 09:23:53;;;;;;;8.63;7.15;;;21.60;99.90;;;-141.84;62.49;21718.63;5005968;28;20597;-63
2023/09/17 09:26:33;;;;;;;8.43;7.63;;;21.70;99.90;;;-141.84;62.35;21769.47;4985700;28;20254;-63
2023/09/17 09:29:02;;;;;;;8.48;7.78;;;21.90;99.90;;;-141.84;62.16;21759.28;4978682;28;20281;-63
2023/09/17 09:31:31;;;;;;;7.32;6.72;;;21.90;99.90;;;-141.84;61.97;21820.28;4976130;28;20212;-62
2023/09/17 09:34:00;;;;;;;7.63;6.88;;;22.10;99.90;;;-141.84;61.24;21860.97;4977313;28;20223;-62
2023/09/17 09:36:30;;;;;;;7.38;6.78;;;22.20;99.90;;;-141.84;60.73;21907.72;4985843;28;20267;-62
2023/09/17 09:38:58;;;;;;;7.72;7.03;;;22.40;99.90;;;-141.84;60.73;21926.03;4986107;28;20266;-64
2023/09/17 09:41:32;;;;;;;7.10;6.40;;;22.50;99.90;;;-141.84;60.23;21950.44;4978681;28;20681;-63
2023/09/17 09:44:01;;;;;;;7.88;7.18;;;22.60;99.90;;;-141.84;60.07;21938.22;4982191;28;20293;-62
2023/09/17 09:46:33;;;;;;;7.15;6.50;;;22.70;99.90;;;-141.84;59.27;22017.53;4985729;28;20678;-62
2023/09/17 09:49:02;;;;;;;7.20;6.57;;;22.80;99.90;;;-141.84;59.38;21978.91;4984662;28;20233;-62
2023/09/17 09:51:31;;;;;;;7.75;7.15;;;22.80;99.90;;;-141.84;59.32;22015.50;4978720;28;20679;-62
2023/09/17 09:54:00;;;;;;;8.07;7.38;;;22.90;99.90;;;-141.84;59.13;22019.56;4981436;28;20215;-63
2023/09/17 09:56:30;;;;;;;7.43;6.72;;;23.00;99.90;;;-141.84;58.92;22037.88;4966067;28;20232;-62
2023/09/17 09:59:01;;;;;;;7.20;6.65;;;23.00;99.90;;;-141.84;58.98;22054.13;4976738;28;20243;-64
2023/09/17 10:01:29;;;;;;;7.18;6.57;;;23.10;99.90;;;-141.84;58.55;22064.31;4970816;28;20262;-62
2023/09/17 10:03:59;;;;;;;6.82;6.22;;;23.10;99.90;;;-141.84;58.16;22084.66;4984271;28;20207;-63
2023/09/17 10:06:30;;;;;;;7.07;6.40;;;23.20;99.90;;;-141.84;57.77;22115.16;4985202;28;20258;-62